Time;durP1;ratioP1;P1;durP2;ratioP2;P2;SDS_P1;SDS_P2;PMS_P1;PMS_P2;Temp;Humidity;BMP_temperature;BMP_pressure;BME280_temperature;BME280_humidity;BME280_pressure;Samples;Min_cycle;Max_cycle;Signal;HPM_P1;HPM_P2
2022/11/05 00:09:47;;;;;;;;;;;;;;;20.44;66.23;100373.16;7403281;19;1828;-44
2022/11/05 00:17:40;;;;;;;;;;;;;;;20.38;66.06;100370.25;7404914;19;1621;-44
2022/11/05 00:20:09;;;;;;;;;;;;;;;20.39;66.15;100353.13;7402982;19;1861;-44
2022/11/05 00:25:30;;;;;;;;;;;;;;;20.34;65.98;100352.78;7399208;19;1716;-44
2022/11/05 00:28:02;;;;;;;;;;;;;;;20.39;66.15;100361.19;7403138;19;1756;-45
2022/11/05 00:30:33;;;;;;;;;;;;;;;20.38;65.86;100362.19;7402907;19;1873;-44
2022/11/05 00:33:04;;;;;;;;;;;;;;;20.42;65.90;100366.25;7402560;19;1777;-44
2022/11/05 00:35:32;;;;;;;;;;;;;;;20.43;65.20;100352.69;7402256;19;1762;-45
2022/11/05 00:38:00;;;;;;;;;;;;;;;20.42;65.32;100368.94;7403238;19;1924;-45
2022/11/05 00:40:29;;;;;;;;;;;;;;;20.46;65.75;100362.25;7401366;19;1840;-43
2022/11/05 00:45:42;;;;;;;;;;;;;;;20.41;66.31;100378.00;7397282;19;1752;-44
2022/11/05 00:50:51;;;;;;;;;;;;;;;20.43;66.33;100379.53;7402215;19;1846;-44
2022/11/05 00:53:19;;;;;;;;;;;;;;;20.43;66.02;100370.63;7402868;19;1960;-44
2022/11/05 00:55:48;;;;;;;;;;;;;;;20.41;66.10;100369.94;7402503;19;1514;-44
2022/11/05 00:58:17;;;;;;;;;;;;;;;20.37;66.82;100371.25;7401567;19;1827;-44
2022/11/05 01:00:50;;;;;;;;;;;;;;;20.35;66.67;100363.38;7400015;19;2652;-44
2022/11/05 01:03:19;;;;;;;;;;;;;;;20.33;66.96;100370.69;7400659;19;1846;-44
2022/11/05 01:05:49;;;;;;;;;;;;;;;20.33;66.99;100365.31;7400933;19;1732;-44
2022/11/05 01:08:17;;;;;;;;;;;;;;;20.35;66.66;100363.38;7402226;19;1555;-44
2022/11/05 01:10:47;;;;;;;;;;;;;;;20.32;66.73;100362.81;7401312;19;1962;-44
2022/11/05 01:13:15;;;;;;;;;;;;;;;20.34;66.79;100360.81;7401804;19;1987;-44
2022/11/05 01:15:44;;;;;;;;;;;;;;;20.34;66.94;100358.97;7401198;19;1755;-44
2022/11/05 01:18:15;;;;;;;;;;;;;;;20.33;66.47;100364.50;7401428;19;1713;-44
2022/11/05 01:20:43;;;;;;;;;;;;;;;20.37;66.77;100369.41;7400825;19;1849;-44
2022/11/05 01:23:11;;;;;;;;;;;;;;;20.33;66.69;100359.13;7401156;19;1950;-44
2022/11/05 01:25:40;;;;;;;;;;;;;;;20.31;66.56;100353.06;7400977;19;1818;-44
2022/11/05 01:28:08;;;;;;;;;;;;;;;20.31;66.62;100358.44;7400940;19;1929;-44
2022/11/05 01:30:37;;;;;;;;;;;;;;;20.30;66.62;100351.38;7401399;19;1989;-44
2022/11/05 01:33:05;;;;;;;;;;;;;;;20.34;66.87;100350.09;7401081;19;1737;-45
2022/11/05 01:35:36;;;;;;;;;;;;;;;20.31;66.54;100348.53;7401123;19;1899;-44
2022/11/05 01:38:04;;;;;;;;;;;;;;;20.30;66.63;100354.91;7401491;19;1700;-45
2022/11/05 01:40:33;;;;;;;;;;;;;;;20.30;66.58;100354.91;7398957;19;1681;-44
2022/11/05 01:43:01;;;;;;;;;;;;;;;20.29;66.76;100350.53;7400614;19;1864;-44
2022/11/05 01:45:30;;;;;;;;;;;;;;;20.28;66.47;100335.44;7401203;19;1963;-44
2022/11/05 01:48:04;;;;;;;;;;;;;;;20.29;66.74;100323.66;7399856;19;1934;-44
2022/11/05 01:50:37;;;;;;;;;;;;;;;20.26;66.39;100314.09;7398497;19;1723;-44
2022/11/05 01:53:09;;;;;;;;;;;;;;;20.26;66.56;100322.16;7400786;19;1917;-44
2022/11/05 01:55:40;;;;;;;;;;;;;;;20.26;66.55;100316.78;7400831;19;1945;-43
2022/11/05 01:58:11;;;;;;;;;;;;;;;20.23;66.54;100306.38;7400134;19;1955;-44
2022/11/05 02:00:41;;;;;;;;;;;;;;;20.26;66.58;100311.41;7400862;19;1883;-44
2022/11/05 02:03:09;;;;;;;;;;;;;;;20.27;66.50;100307.75;7399914;19;1848;-44
2022/11/05 02:05:41;;;;;;;;;;;;;;;20.25;66.29;100312.44;7399669;19;1843;-44
2022/11/05 02:08:12;;;;;;;;;;;;;;;20.26;66.38;100321.31;7400912;19;1899;-44
2022/11/05 02:10:40;;;;;;;;;;;;;;;20.25;66.56;100315.09;7399677;19;1863;-44
2022/11/05 02:13:09;;;;;;;;;;;;;;;20.24;66.44;100315.25;7399353;19;1926;-43
2022/11/05 02:15:41;;;;;;;;;;;;;;;20.23;66.37;100322.47;7399900;19;1518;-44
2022/11/05 02:18:15;;;;;;;;;;;;;;;20.26;66.25;100321.31;7399366;19;1801;-44
2022/11/05 02:20:50;;;;;;;;;;;;;;;20.23;66.52;100321.59;7399826;19;1502;-43
2022/11/05 02:23:36;;;;;;;;;;;;;;;20.23;66.38;100317.09;7407593;19;1862;-44
2022/11/05 02:26:22;;;;;;;;;;;;;;;20.23;66.16;100310.88;7408315;19;1629;-45
2022/11/05 02:29:06;;;;;;;;;;;;;;;20.22;66.14;100310.03;7407761;19;1751;-46
2022/11/05 02:31:39;;;;;;;;;;;;;;;20.24;66.40;100313.41;7406953;19;1729;-45
2022/11/05 02:34:13;;;;;;;;;;;;;;;20.23;66.23;100317.09;7407879;19;1822;-44
2022/11/05 02:36:45;;;;;;;;;;;;;;;20.21;66.28;100305.69;7406357;19;1997;-44
2022/11/05 02:39:21;;;;;;;;;;;;;;;20.22;66.20;100310.03;7405687;19;1844;-44
2022/11/05 02:41:54;;;;;;;;;;;;;;;20.19;66.23;100310.34;7406140;19;1799;-44
2022/11/05 02:44:26;;;;;;;;;;;;;;;20.23;66.09;100318.91;7404555;19;1842;-44
2022/11/05 02:47:01;;;;;;;;;;;;;;;20.23;66.22;100317.09;7405838;19;1619;-44
2022/11/05 02:49:36;;;;;;;;;;;;;;;20.24;66.07;100318.78;7404867;19;1591;-46
2022/11/05 02:52:06;;;;;;;;;;;;;;;20.23;66.00;100335.03;7407062;19;1715;-45
2022/11/05 02:54:36;;;;;;;;;;;;;;;20.23;65.92;100325.16;7405214;19;1865;-44
2022/11/05 02:57:05;;;;;;;;;;;;;;;20.19;63.42;100315.72;7401520;19;2028;-45
2022/11/05 02:59:33;;;;;;;;;;;;;;;20.20;62.69;100322.78;7401662;19;1690;-44
2022/11/05 03:02:05;;;;;;;;;;;;;;;19.74;64.17;100228.09;7399126;19;1845;-66
2022/11/05 03:04:33;;;;;;;;;;;;;;;21.09;62.87;100320.91;7407261;19;1867;-63
2022/11/05 03:07:13;;;;;;;;;;;;;;;21.54;61.71;100321.63;7407643;19;1527;-64
2022/11/05 03:09:58;;;;;;;;;;;;;;;21.96;60.76;100321.56;7408852;19;1438;-64
2022/11/05 03:12:31;;;;;;;;;;;;;;;22.47;59.67;100324.16;7407533;19;1636;-64
2022/11/05 03:15:05;;;;;;;;;;;;;;;22.51;59.64;100306.63;7408205;19;1795;-64
2022/11/05 03:17:40;;;;;;;;;;;;;;;22.14;60.81;100332.19;7406138;19;1437;-64
2022/11/05 03:20:13;;;;;;;;;;;;;;;21.53;61.46;100341.50;7406755;19;1596;-64
2022/11/05 03:22:44;;;;;;;;;;;;;;;21.28;63.34;100352.09;7408364;19;1477;-64
2022/11/05 03:25:16;;;;;;;;;;;;;;;21.45;62.67;100335.06;7404891;19;1863;-64
2022/11/05 03:27:47;;;;;;;;;;;;;;;21.68;62.21;100321.00;7407339;19;1480;-64
2022/11/05 03:30:17;;;;;;;;;;;;;;;22.34;60.46;100313.03;7406741;19;1674;-64
2022/11/05 03:32:51;;;;;;;;;;;;;;;22.46;60.14;100319.75;7404960;19;1436;-64
2022/11/05 03:35:22;;;;;;;;;;;;;;;21.90;61.54;100337.53;7406726;19;1631;-64
2022/11/05 03:37:52;;;;;;;;;;;;;;;21.37;62.94;100331.47;7406963;19;1678;-64
2022/11/05 03:40:24;;;;;;;;;;;;;;;21.44;63.18;100336.06;7404569;19;1722;-64
2022/11/05 03:42:54;;;;;;;;;;;;;;;21.71;62.34;100325.22;7407253;19;1457;-64
2022/11/05 03:45:24;;;;;;;;;;;;;;;22.16;61.42;100332.88;7404170;19;1827;-64
2022/11/05 03:47:58;;;;;;;;;;;;;;;22.56;59.88;100315.06;7405795;19;1580;-64
2022/11/05 03:50:32;;;;;;;;;;;;;;;22.23;61.03;100328.50;7404924;19;1430;-64
2022/11/05 03:53:02;;;;;;;;;;;;;;;21.61;62.60;100336.13;7406365;19;1540;-64
2022/11/05 03:55:34;;;;;;;;;;;;;;;21.41;63.62;100333.66;7405681;19;1234;-65
2022/11/05 03:58:03;;;;;;;;;;;;;;;21.71;62.54;100338.69;7405833;19;1469;-64
2022/11/05 04:00:32;;;;;;;;;;;;;;;21.91;62.13;100331.16;7406703;19;1526;-64
2022/11/05 04:03:03;;;;;;;;;;;;;;;22.47;60.80;100329.53;7406233;19;1430;-64
2022/11/05 04:05:32;;;;;;;;;;;;;;;22.44;60.33;100335.25;7403829;19;1877;-64
2022/11/05 04:13:27;;;;;;;;;;;;;;;21.45;63.33;100337.75;7403734;19;1374;-64
2022/11/05 04:18:39;;;;;;;;;;;;;;;21.91;61.94;100331.16;7406982;19;1435;-64
2022/11/05 04:26:30;;;;;;;;;;;;;;;21.64;63.09;100338.47;7405255;19;1481;-64
2022/11/05 04:31:39;;;;;;;;;;;;;;;22.31;61.08;100324.16;7405086;19;1361;-64
2022/11/05 04:34:10;;;;;;;;;;;;;;;22.64;60.26;100315.06;7405097;19;1551;-64
2022/11/05 04:36:38;;;;;;;;;;;;;;;22.05;61.83;100323.25;7406412;19;1525;-64
2022/11/05 04:39:07;;;;;;;;;;;;;;;21.65;63.09;100332.09;7402791;19;1670;-64
2022/11/05 04:41:35;;;;;;;;;;;;;;;21.39;63.45;100340.22;7404101;19;1536;-64
2022/11/05 04:44:03;;;;;;;;;;;;;;;21.59;63.19;100327.38;7403143;19;1859;-64
2022/11/05 04:46:32;;;;;;;;;;;;;;;21.78;62.47;100319.00;7405307;19;1548;-65
2022/11/05 04:49:00;;;;;;;;;;;;;;;21.81;62.45;100313.31;7401807;19;1493;-64
2022/11/05 04:51:31;;;;;;;;;;;;;;;21.59;62.93;100319.31;7403596;19;1630;-64
2022/11/05 04:53:59;;;;;;;;;;;;;;;21.41;63.70;100327.44;7404614;19;1469;-64
2022/11/05 04:56:28;;;;;;;;;;;;;;;21.62;62.98;100313.59;7404304;19;1627;-64
2022/11/05 04:58:56;;;;;;;;;;;;;;;21.80;62.73;100327.75;7403935;19;1535;-64
2022/11/05 05:01:25;;;;;;;;;;;;;;;21.91;62.32;100325.78;7403545;19;1671;-64
2022/11/05 05:03:54;;;;;;;;;;;;;;;21.62;63.04;100341.31;7403367;19;1863;-64
2022/11/05 05:06:23;;;;;;;;;;;;;;;21.44;63.40;100359.44;7403299;19;1525;-64
2022/11/05 05:08:54;;;;;;;;;;;;;;;21.43;63.71;100334.38;7402396;19;1659;-64
2022/11/05 05:11:23;;;;;;;;;;;;;;;21.66;63.06;100352.59;7403825;19;1733;-65
2022/11/05 05:13:51;;;;;;;;;;;;;;;21.81;62.45;100334.00;7403775;19;1460;-64
2022/11/05 05:16:22;;;;;;;;;;;;;;;21.65;62.72;100357.16;7404115;19;1523;-64
2022/11/05 05:18:50;;;;;;;;;;;;;;;21.43;63.47;100360.44;7402846;19;1665;-64
2022/11/05 05:24:02;;;;;;;;;;;;;;;21.82;62.46;100349.97;7402398;19;1843;-64
2022/11/05 05:26:31;;;;;;;;;;;;;;;21.98;62.06;100351.00;7403417;19;1719;-65
2022/11/05 05:28:59;;;;;;;;;;;;;;;21.69;62.90;100346.91;7403386;19;1472;-64
2022/11/05 05:31:27;;;;;;;;;;;;;;;21.49;63.23;100362.47;7403828;19;1604;-64
2022/11/05 05:33:56;;;;;;;;;;;;;;;21.44;63.61;100354.88;7403773;19;1602;-64
2022/11/05 05:36:25;;;;;;;;;;;;;;;21.64;63.17;100363.53;7403024;19;1630;-64
2022/11/05 05:38:53;;;;;;;;;;;;;;;21.89;62.27;100369.00;7402029;19;1401;-64
2022/11/05 05:41:24;;;;;;;;;;;;;;;21.68;62.70;100369.44;7403079;19;1635;-64
2022/11/05 05:43:52;;;;;;;;;;;;;;;21.52;63.17;100366.69;7402734;19;1623;-64
2022/11/05 05:46:21;;;;;;;;;;;;;;;21.52;63.34;100372.06;7401487;19;1853;-65
2022/11/05 05:48:51;;;;;;;;;;;;;;;21.71;62.83;100379.06;7400976;19;1453;-64
2022/11/05 05:51:20;;;;;;;;;;;;;;;21.95;62.11;100383.66;7403090;19;1625;-64
2022/11/05 05:53:48;;;;;;;;;;;;;;;21.71;62.52;100393.34;7402367;19;1551;-64
2022/11/05 05:56:19;;;;;;;;;;;;;;;21.48;63.25;100397.63;7403361;19;1877;-64
2022/11/05 05:58:51;;;;;;;;;;;;;;;21.51;63.20;100391.94;7410666;19;1544;-64
2022/11/05 06:01:19;;;;;;;;;;;;;;;21.73;62.60;100388.66;7408791;19;1500;-64
2022/11/05 06:03:48;;;;;;;;;;;;;;;21.93;61.97;100396.44;7408351;19;1497;-65
2022/11/05 06:06:18;;;;;;;;;;;;;;;21.74;62.03;100387.63;7405410;19;1849;-65
2022/11/05 06:08:46;;;;;;;;;;;;;;;21.64;63.03;100409.28;7409150;19;1655;-66
2022/11/05 06:11:15;;;;;;;;;;;;;;;21.53;62.79;100397.97;7408955;19;1714;-67
2022/11/05 06:13:43;;;;;;;;;;;;;;;21.88;62.08;100407.69;7404975;19;1473;-65
2022/11/05 06:16:14;;;;;;;;;;;;;;;22.02;61.88;100417.00;7409273;19;1591;-66
2022/11/05 06:18:42;;;;;;;;;;;;;;;21.85;62.46;100403.47;7407563;19;1738;-65
2022/11/05 06:21:12;;;;;;;;;;;;;;;21.64;63.01;100413.81;7408294;19;1548;-66
2022/11/05 06:23:41;;;;;;;;;;;;;;;21.67;57.60;100413.50;7409770;19;1409;-65
2022/11/05 06:26:11;;;;;;;;;;;;;;;21.90;60.66;100419.13;7406870;19;1843;-65
2022/11/05 06:28:40;;;;;;;;;;;;;;;22.14;60.90;100418.34;7410426;19;1081;-66
2022/11/05 06:31:09;;;;;;;;;;;;;;;22.09;61.15;100418.03;7406225;19;1650;-66
2022/11/05 06:33:40;;;;;;;;;;;;;;;21.80;61.91;100424.66;7408996;19;1743;-65
2022/11/05 06:36:09;;;;;;;;;;;;;;;21.82;63.05;100440.66;7407811;19;1706;-66
2022/11/05 06:38:38;;;;;;;;;;;;;;;22.15;62.27;100428.13;7408723;19;1672;-64
2022/11/05 06:41:07;;;;;;;;;;;;;;;22.22;59.55;100420.22;7409208;19;1132;-71
2022/11/05 06:43:35;;;;;;;;;;;;;;;22.00;60.96;100427.94;7408900;19;1916;-66
2022/11/05 06:46:04;;;;;;;;;;;;;;;21.65;60.60;100423.59;7404930;19;1846;-62
2022/11/05 06:48:32;;;;;;;;;;;;;;;21.54;61.93;100434.63;7408128;19;1654;-62
2022/11/05 06:51:03;;;;;;;;;;;;;;;21.44;62.70;100423.97;7407653;19;1503;-61
2022/11/05 06:53:31;;;;;;;;;;;;;;;21.39;63.37;100437.88;7408316;19;1605;-67
2022/11/05 06:56:03;;;;;;;;;;;;;;;21.42;63.03;100426.78;7408631;19;1128;-63
2022/11/05 06:58:31;;;;;;;;;;;;;;;21.39;64.20;100434.38;7407804;19;1731;-63
2022/11/05 07:01:01;;;;;;;;;;;;;;;21.38;64.66;100416.53;7406367;19;1386;-63
2022/11/05 07:03:30;;;;;;;;;;;;;;;21.36;65.42;100432.81;7407982;19;1496;-62
2022/11/05 07:06:00;;;;;;;;;;;;;;;21.36;65.05;100422.06;7406267;19;1857;-63
2022/11/05 07:08:31;;;;;;;;;;;;;;;21.30;65.38;100422.69;7407098;19;1315;-63
2022/11/05 07:11:00;;;;;;;;;;;;;;;21.34;65.79;100421.38;7408140;19;1070;-68
2022/11/05 07:13:29;;;;;;;;;;;;;;;21.36;65.26;100422.06;7407581;19;1296;-64
2022/11/05 07:15:57;;;;;;;;;;;;;;;21.35;66.11;100425.75;7407244;19;1851;-62
2022/11/05 07:18:26;;;;;;;;;;;;;;;21.41;65.93;100425.13;7407096;19;1671;-64
2022/11/05 07:20:54;;;;;;;;;;;;;;;21.41;65.85;100411.69;7408410;19;1319;-62
2022/11/05 07:23:23;;;;;;;;;;;;;;;21.40;66.09;100430.66;7408207;19;940;-63
2022/11/05 07:25:54;;;;;;;;;;;;;;;21.33;66.51;100425.09;7406423;19;1861;-62
2022/11/05 07:28:22;;;;;;;;;;;;;;;21.34;66.58;100413.31;7407353;19;1826;-66
2022/11/05 07:30:51;;;;;;;;;;;;;;;21.49;66.41;100420.81;7406860;19;1638;-64
2022/11/05 07:33:19;;;;;;;;;;;;;;;21.41;66.51;100405.47;7406869;19;1349;-66
2022/11/05 07:35:48;;;;;;;;;;;;;;;21.40;66.21;100420.72;7406530;19;1495;-65
2022/11/05 07:38:16;;;;;;;;;;;;;;;21.29;67.00;100410.28;7407913;19;1480;-65
2022/11/05 07:40:45;;;;;;;;;;;;;;;21.29;66.09;100420.16;7407323;19;1590;-63
2022/11/05 07:43:16;;;;;;;;;;;;;;;21.24;65.09;100401.81;7406247;19;1495;-63
2022/11/05 07:45:44;;;;;;;;;;;;;;;21.30;65.81;100403.03;7404808;19;1874;-63
2022/11/05 07:48:12;;;;;;;;;;;;;;;21.31;66.46;100397.50;7405550;19;1512;-64
2022/11/05 07:50:41;;;;;;;;;;;;;;;21.30;66.63;100395.81;7406353;19;1584;-69
2022/11/05 07:53:11;;;;;;;;;;;;;;;21.32;66.76;100412.63;7405354;19;1580;-65
2022/11/05 07:55:42;;;;;;;;;;;;;;;21.21;64.94;100392.25;7406283;19;1678;-65
2022/11/05 07:58:11;;;;;;;;;;;;;;;21.23;66.38;100405.53;7405903;19;1489;-63
2022/11/05 08:00:42;;;;;;;;;;;;;;;21.25;66.17;100390.06;7405423;19;1653;-67
2022/11/05 08:03:13;;;;;;;;;;;;;;;21.23;65.75;100378.63;7405018;19;1594;-65
2022/11/05 08:05:43;;;;;;;;;;;;;;;21.25;65.88;100377.47;7405016;19;1869;-66
2022/11/05 08:08:12;;;;;;;;;;;;;;;21.24;65.69;100369.56;7407153;19;980;-66
2022/11/05 08:10:41;;;;;;;;;;;;;;;21.25;65.60;100377.47;7406476;19;1488;-67
2022/11/05 08:13:10;;;;;;;;;;;;;;;21.25;65.73;100372.09;7406518;19;1682;-68
2022/11/05 08:15:39;;;;;;;;;;;;;;;21.30;65.68;100376.97;7406929;19;1613;-67
2022/11/05 08:18:12;;;;;;;;;;;;;;;21.32;65.97;100372.28;7405811;19;1538;-67
2022/11/05 08:20:41;;;;;;;;;;;;;;;21.35;65.98;100361.22;7404302;19;1634;-63
2022/11/05 08:23:09;;;;;;;;;;;;;;;21.34;65.78;100364.88;7406468;19;1075;-63
2022/11/05 08:25:38;;;;;;;;;;;;;;;21.23;66.22;100367.88;7404983;19;1879;-62
2022/11/05 08:28:08;;;;;;;;;;;;;;;21.18;66.35;100362.13;7405063;19;1461;-62
2022/11/05 08:30:36;;;;;;;;;;;;;;;21.12;66.77;100352.00;7404307;19;1618;-63
2022/11/05 08:33:06;;;;;;;;;;;;;;;21.17;66.30;100360.44;7406023;19;1337;-65
2022/11/05 08:35:38;;;;;;;;;;;;;;;21.26;66.72;100352.25;7404729;19;1488;-64
2022/11/05 08:38:07;;;;;;;;;;;;;;;21.27;66.60;100363.88;7406576;19;1004;-64
2022/11/05 08:40:37;;;;;;;;;;;;;;;21.24;66.67;100358.78;7404109;19;1682;-67
2022/11/05 08:43:06;;;;;;;;;;;;;;;21.23;66.74;100355.28;7404737;19;1730;-65
2022/11/05 08:45:35;;;;;;;;;;;;;;;21.26;66.78;100346.03;7405059;19;1863;-62
2022/11/05 08:48:04;;;;;;;;;;;;;;;21.29;66.66;100334.97;7405012;19;1526;-64
2022/11/05 08:50:33;;;;;;;;;;;;;;;21.22;67.13;100345.50;7404297;19;1614;-64
2022/11/05 08:53:04;;;;;;;;;;;;;;;21.24;67.10;100353.41;7404809;19;1055;-65
2022/11/05 08:55:33;;;;;;;;;;;;;;;21.23;67.36;100357.13;7405343;19;1748;-68
2022/11/05 08:58:02;;;;;;;;;;;;;;;21.22;66.90;100355.41;7405285;19;1621;-66
2022/11/05 09:00:32;;;;;;;;;;;;;;;21.19;67.32;100345.00;7404586;19;1370;-65
2022/11/05 09:03:00;;;;;;;;;;;;;;;21.14;67.83;100344.63;7402664;19;1835;-65
2022/11/05 09:05:29;;;;;;;;;;;;;;;21.11;67.63;100334.19;7404094;19;1857;-65
2022/11/05 09:07:57;;;;;;;;;;;;;;;21.18;67.88;100343.31;7405683;19;1156;-68
2022/11/05 09:10:28;;;;;;;;;;;;;;;21.21;67.63;100351.06;7403272;19;1373;-67
2022/11/05 09:12:57;;;;;;;;;;;;;;;21.21;67.63;100348.38;7404141;19;1499;-71
2022/11/05 09:15:25;;;;;;;;;;;;;;;21.20;67.11;100347.50;7403815;19;1535;-68
2022/11/05 09:17:54;;;;;;;;;;;;;;;21.20;67.40;100347.50;7403679;19;1582;-69
2022/11/05 09:20:22;;;;;;;;;;;;;;;21.25;67.65;100347.06;7403990;19;1633;-66
2022/11/05 09:22:51;;;;;;;;;;;;;;;21.28;67.17;100333.25;7399426;19;1547;-65
2022/11/05 09:25:19;;;;;;;;;;;;;;;21.24;67.42;100348.03;7400935;19;1858;-70
2022/11/05 09:27:50;;;;;;;;;;;;;;;21.22;67.32;100333.91;7403286;19;1435;-73
2022/11/05 09:30:19;;;;;;;;;;;;;;;21.26;67.33;100340.66;7400551;19;1346;-71
2022/11/05 09:32:47;;;;;;;;;;;;;;;21.26;67.26;100335.28;7400551;19;1312;-71
2022/11/05 09:35:16;;;;;;;;;;;;;;;21.23;67.22;100335.59;7402710;19;1426;-71
2022/11/05 09:37:44;;;;;;;;;;;;;;;21.20;67.43;100331.38;7401590;19;1174;-70
2022/11/05 09:40:16;;;;;;;;;;;;;;;21.23;67.37;100331.06;7400980;19;1753;-72
2022/11/05 09:42:51;;;;;;;;;;;;;;;21.22;67.44;100326.69;7401096;19;1441;-68
2022/11/05 09:45:24;;;;;;;;;;;;;;;21.33;66.82;100325.56;7397338;19;1869;-68
2022/11/05 09:47:55;;;;;;;;;;;;;;;21.36;66.97;100324.41;7401040;19;1605;-69
2022/11/05 09:50:26;;;;;;;;;;;;;;;21.31;66.85;100327.56;7399781;19;1326;-69
2022/11/05 09:52:57;;;;;;;;;;;;;;;21.27;62.30;100336.97;7403297;19;928;-68
2022/11/05 09:55:30;;;;;;;;;;;;;;;21.18;60.24;100338.75;7402871;19;1453;-67
2022/11/05 09:58:00;;;;;;;;;;;;;;;21.22;65.08;100328.53;7403204;19;1400;-73
2022/11/05 10:00:31;;;;;;;;;;;;;;;21.23;64.63;100330.22;7402286;19;1357;-78
2022/11/05 10:03:01;;;;;;;;;;;;;;;21.30;64.30;100316.97;7402102;19;1527;-69
2022/11/05 10:05:30;;;;;;;;;;;;;;;21.26;62.63;100314.59;7402463;19;1849;-70
2022/11/05 10:08:00;;;;;;;;;;;;;;;21.16;62.49;100323.81;7402564;19;967;-66
2022/11/05 10:10:34;;;;;;;;;;;;;;;21.14;63.02;100320.44;7402681;19;1520;-67
2022/11/05 10:13:07;;;;;;;;;;;;;;;21.13;62.54;100330.34;7403303;19;1333;-67
2022/11/05 10:15:40;;;;;;;;;;;;;;;21.17;62.58;100328.16;7403074;19;1547;-68
2022/11/05 10:18:14;;;;;;;;;;;;;;;21.13;62.55;100326.78;7401808;19;1629;-68
2022/11/05 10:20:44;;;;;;;;;;;;;;;21.11;63.10;100326.97;7400532;19;1292;-68
2022/11/05 10:23:14;;;;;;;;;;;;;;;21.16;62.79;100329.19;7396033;19;1497;-67
2022/11/05 10:25:44;;;;;;;;;;;;;;;21.13;63.15;100318.72;7402271;19;1862;-68
2022/11/05 10:28:16;;;;;;;;;;;;;;;21.15;62.74;100330.16;7399681;19;1492;-69
2022/11/05 10:30:48;;;;;;;;;;;;;;;21.16;62.91;100326.50;7401748;19;1345;-67
2022/11/05 10:33:21;;;;;;;;;;;;;;;21.12;63.14;100317.91;7402351;19;1370;-71
2022/11/05 10:35:51;;;;;;;;;;;;;;;21.16;63.83;100324.63;7402059;19;1227;-66
2022/11/05 10:41:35;;;;;;;;;;;;;;;20.95;57.75;100322.34;7404078;19;709;-65
2022/11/05 10:47:07;;;;;;;;;;;;;;;20.86;55.83;100313.38;7404696;19;1853;-66
2022/11/05 10:52:34;;;;;;;;;;;;;;;20.84;55.03;100314.56;7406198;19;757;-65
2022/11/05 10:58:09;;;;;;;;;;;;;;;20.89;55.92;100304.19;7404800;19;869;-68
2022/11/05 11:03:35;;;;;;;;;;;;;;;20.80;54.04;100299.75;7397781;19;1141;-68
2022/11/05 11:09:01;;;;;;;;;;;;;;;20.85;54.10;100309.03;7405311;19;710;-65
2022/11/05 11:14:25;;;;;;;;;;;;;;;21.03;55.50;100287.44;7404980;19;710;-63
2022/11/05 11:19:52;;;;;;;;;;;;;;;20.98;57.82;100289.75;7403841;19;682;-65
2022/11/05 11:25:24;;;;;;;;;;;;;;;21.11;57.89;100277.72;7402662;19;824;-69
2022/11/05 11:30:49;;;;;;;;;;;;;;;21.13;58.78;100275.72;7401463;19;745;-68
2022/11/05 11:36:18;;;;;;;;;;;;;;;21.21;58.32;100262.31;7402568;19;485;-68
2022/11/05 11:41:44;;;;;;;;;;;;;;;21.28;58.90;100249.91;7403536;19;795;-63
2022/11/05 11:47:11;;;;;;;;;;;;;;;21.36;59.39;100266.06;7402666;19;1851;-67
2022/11/05 11:52:38;;;;;;;;;;;;;;;21.40;58.96;100277.34;7403738;19;745;-64
2022/11/05 11:58:07;;;;;;;;;;;;;;;21.33;61.82;100261.03;7402416;19;768;-66
2022/11/05 12:03:35;;;;;;;;;;;;;;;21.49;62.61;100270.16;7400522;19;1098;-72
2022/11/05 12:09:03;;;;;;;;;;;;;;;21.41;63.55;100274.50;7401438;19;718;-61
2022/11/05 12:14:31;;;;;;;;;;;;;;;21.37;62.82;100266.91;7401686;19;761;-61
2022/11/05 12:20:10;;;;;;;;;;;;;;;21.41;61.53;100282.56;7401831;19;732;-69
2022/11/05 12:25:39;;;;;;;;;;;;;;;21.53;61.56;100266.16;7400676;19;773;-64
2022/11/05 12:31:07;;;;;;;;;;;;;;;21.56;61.75;100263.13;7401127;19;745;-68
2022/11/05 12:36:37;;;;;;;;;;;;;;;21.60;62.12;100256.41;7401381;19;706;-60
2022/11/05 12:42:07;;;;;;;;;;;;;;;21.45;62.88;100259.72;7401303;19;784;-60
2022/11/05 12:47:39;;;;;;;;;;;;;;;21.33;63.22;100250.25;7400062;19;1856;-60
2022/11/05 12:53:13;;;;;;;;;;;;;;;21.35;63.63;100242.88;7401442;19;780;-60
2022/11/05 12:58:42;;;;;;;;;;;;;;;21.28;63.43;100247.22;7400502;19;781;-60
2022/11/05 13:04:13;;;;;;;;;;;;;;;21.18;63.82;100241.13;7397504;19;1236;-61
2022/11/05 13:09:40;;;;;;;;;;;;;;;21.28;63.57;100249.91;7400504;19;800;-61
2022/11/05 13:15:14;;;;;;;;;;;;;;;21.35;63.13;100237.50;7399838;19;658;-60
2022/11/05 13:20:41;;;;;;;;;;;;;;;21.25;63.74;100258.31;7400387;19;713;-59
2022/11/05 13:26:07;;;;;;;;;;;;;;;21.21;63.77;100248.88;7401109;19;702;-60
2022/11/05 13:31:36;;;;;;;;;;;;;;;21.15;64.67;100262.94;7401265;19;793;-60
2022/11/05 13:42:45;;;;;;;;;;;;;;;21.05;64.59;100261.25;7400315;19;702;-60
2022/11/05 13:48:27;;;;;;;;;;;;;;;21.04;64.59;100264.94;7398247;19;1842;-62
2022/11/05 13:54:07;;;;;;;;;;;;;;;21.04;65.00;100270.28;7399658;19;760;-61
2022/11/05 13:59:46;;;;;;;;;;;;;;;21.05;65.33;100271.16;7399431;19;745;-60
2022/11/05 14:05:23;;;;;;;;;;;;;;;21.13;65.15;100279.25;7394973;19;1318;-62
2022/11/05 14:10:48;;;;;;;;;;;;;;;21.03;65.93;100283.94;7398371;19;725;-62
2022/11/05 14:16:18;;;;;;;;;;;;;;;21.06;65.57;100270.16;7399726;19;681;-63
2022/11/05 14:21:51;;;;;;;;;;;;;;;20.99;66.11;100275.34;7406469;19;850;-60
2022/11/05 14:27:39;;;;;;;;;;;;;;;20.91;66.20;100277.13;7405315;19;1859;-61
2022/11/05 14:33:05;;;;;;;;;;;;;;;20.88;66.36;100282.84;7405775;19;515;-61
2022/11/05 14:38:27;;;;;;;;;;;;;;;20.93;66.12;100281.34;7403557;19;1279;-60
2022/11/05 14:43:55;;;;;;;;;;;;;;;20.98;65.76;100288.94;7406446;19;678;-61
2022/11/05 14:49:21;;;;;;;;;;;;;;;20.98;65.60;100272.78;7407442;19;730;-64
2022/11/05 14:54:49;;;;;;;;;;;;;;;20.92;65.84;100273.44;7407126;19;706;-61
2022/11/05 15:00:28;;;;;;;;;;;;;;;20.86;63.48;100265.00;7406710;19;1260;-60
2022/11/05 15:05:52;;;;;;;;;;;;;;;20.93;65.71;100280.50;7403633;19;1151;-65
2022/11/05 15:11:21;;;;;;;;;;;;;;;20.90;65.71;100297.78;7406785;19;714;-61
2022/11/05 15:16:46;;;;;;;;;;;;;;;20.85;65.73;100278.63;7406635;19;686;-62
2022/11/05 15:22:14;;;;;;;;;;;;;;;21.04;65.48;100283.75;7406528;19;769;-61
2022/11/05 15:27:48;;;;;;;;;;;;;;;21.04;65.50;100286.44;7403658;19;1858;-60
2022/11/05 15:33:19;;;;;;;;;;;;;;;21.06;65.46;100287.09;7405525;19;701;-61
2022/11/05 15:38:43;;;;;;;;;;;;;;;21.01;65.46;100305.59;7404948;19;1838;-61
2022/11/05 15:41:16;;;;;;;;;;;;;;;21.00;66.37;100311.94;7408885;19;1525;-63
2022/11/05 15:43:47;;;;;;;;;;;;;;;20.91;67.63;100318.31;7407708;19;1619;-60
2022/11/05 15:46:19;;;;;;;;;;;;;;;20.90;67.30;100329.19;7407007;19;1661;-62
2022/11/05 15:48:49;;;;;;;;;;;;;;;20.96;67.52;100334.78;7405409;19;1845;-59
2022/11/05 15:51:18;;;;;;;;;;;;;;;20.97;67.53;100317.66;7406849;19;1285;-60
2022/11/05 15:53:57;;;;;;;;;;;;;;;21.00;67.31;100325.38;7405474;19;1322;-58
2022/11/05 15:56:27;;;;;;;;;;;;;;;21.05;66.98;100339.22;7406359;19;1722;-60
2022/11/05 15:59:00;;;;;;;;;;;;;;;21.04;66.75;100340.19;7406122;19;1612;-61
2022/11/05 16:01:30;;;;;;;;;;;;;;;20.94;67.30;100334.09;7404924;19;1765;-59
2022/11/05 16:04:00;;;;;;;;;;;;;;;20.92;67.20;100338.78;7407316;19;1255;-61
2022/11/05 16:06:36;;;;;;;;;;;;;;;20.93;67.15;100339.63;7404100;19;1679;-61
2022/11/05 16:09:04;;;;;;;;;;;;;;;20.91;67.28;100350.56;7405411;19;1848;-60
2022/11/05 16:11:32;;;;;;;;;;;;;;;20.94;67.11;100363.66;7407728;19;1353;-65
2022/11/05 16:14:17;;;;;;;;;;;;;;;20.90;66.89;100373.03;7407442;19;1341;-63
2022/11/05 16:16:48;;;;;;;;;;;;;;;20.91;67.05;100379.25;7408451;19;1360;-63
2022/11/05 16:19:31;;;;;;;;;;;;;;;20.93;66.98;100378.13;7406202;19;1640;-72
2022/11/05 16:21:59;;;;;;;;;;;;;;;20.93;66.98;100363.81;7408054;19;1564;-63
2022/11/05 16:24:28;;;;;;;;;;;;;;;20.95;67.12;100386.88;7405278;19;1714;-62
2022/11/05 16:26:57;;;;;;;;;;;;;;;20.90;66.88;100382.97;7407611;19;1858;-61
2022/11/05 16:29:29;;;;;;;;;;;;;;;20.88;67.06;100393.84;7407624;19;1630;-62
2022/11/05 16:32:00;;;;;;;;;;;;;;;20.88;67.24;100401.91;7406773;19;1503;-60